sensor_id;sensor_type;location;lat;lon;timestamp;pressure;altitude;pressure_sealevel;temperature;humidity
84122;BME280;74217;51.106;17.084;2024-03-06T00:00:57;100637.88;;;4.73;73.76
84122;BME280;74217;51.106;17.084;2024-03-06T00:03:48;100637.06;;;4.71;74.24
84122;BME280;74217;51.106;17.084;2024-03-06T00:06:33;100637.88;;;4.75;74.36
84122;BME280;74217;51.106;17.084;2024-03-06T00:09:18;100643.00;;;4.79;74.50
84122;BME280;74217;51.106;17.084;2024-03-06T00:12:03;100636.97;;;4.79;73.87
84122;BME280;74217;51.106;17.084;2024-03-06T00:14:49;100640.38;;;4.82;74.78
84122;BME280;74217;51.106;17.084;2024-03-06T00:17:33;100649.03;;;4.84;73.26
84122;BME280;74217;51.106;17.084;2024-03-06T00:20:19;100642.19;;;4.77;74.20
84122;BME280;74217;51.106;17.084;2024-03-06T00:23:04;100647.41;;;4.77;74.12
84122;BME280;74217;51.106;17.084;2024-03-06T00:25:48;100646.59;;;4.72;74.09
84122;BME280;74217;51.106;17.084;2024-03-06T00:28:33;100651.88;;;4.66;75.39
84122;BME280;74217;51.106;17.084;2024-03-06T00:31:18;100648.47;;;4.64;75.11
84122;BME280;74217;51.106;17.084;2024-03-06T00:34:03;100646.75;;;4.60;75.10
84122;BME280;74217;51.106;17.084;2024-03-06T00:36:49;100647.72;;;4.56;75.66
84122;BME280;74217;51.106;17.084;2024-03-06T00:39:34;100649.38;;;4.60;74.60
84122;BME280;74217;51.106;17.084;2024-03-06T00:42:19;100650.09;;;4.71;74.55
84122;BME280;74217;51.106;17.084;2024-03-06T00:45:05;100648.47;;;4.64;74.77
84122;BME280;74217;51.106;17.084;2024-03-06T00:47:50;100646.69;;;4.66;75.08
84122;BME280;74217;51.106;17.084;2024-03-06T00:50:35;100645.78;;;4.69;75.18
84122;BME280;74217;51.106;17.084;2024-03-06T00:53:20;100651.06;;;4.64;75.00
84122;BME280;74217;51.106;17.084;2024-03-06T00:56:07;100654.56;;;4.62;74.59
84122;BME280;74217;51.106;17.084;2024-03-06T00:58:52;100655.53;;;4.56;74.96
84122;BME280;74217;51.106;17.084;2024-03-06T01:01:37;100657.25;;;4.57;74.82
84122;BME280;74217;51.106;17.084;2024-03-06T01:04:22;100655.41;;;4.64;74.56
84122;BME280;74217;51.106;17.084;2024-03-06T01:07:07;100659.78;;;4.63;75.03
84122;BME280;74217;51.106;17.084;2024-03-06T01:09:52;100662.38;;;4.63;75.58
84122;BME280;74217;51.106;17.084;2024-03-06T01:12:37;100668.56;;;4.56;75.86
84122;BME280;74217;51.106;17.084;2024-03-06T01:15:22;100663.22;;;4.64;75.24
84122;BME280;74217;51.106;17.084;2024-03-06T01:18:07;100671.03;;;4.65;75.47
84122;BME280;74217;51.106;17.084;2024-03-06T01:20:53;100668.56;;;4.53;75.31
84122;BME280;74217;51.106;17.084;2024-03-06T01:23:39;100672.00;;;4.58;75.85
84122;BME280;74217;51.106;17.084;2024-03-06T01:26:24;100677.09;;;4.67;75.05
84122;BME280;74217;51.106;17.084;2024-03-06T01:29:09;100671.75;;;4.75;74.83
84122;BME280;74217;51.106;17.084;2024-03-06T01:31:54;100670.88;;;4.76;75.19
84122;BME280;74217;51.106;17.084;2024-03-06T01:34:39;100675.25;;;4.74;75.84
84122;BME280;74217;51.106;17.084;2024-03-06T01:37:24;100678.84;;;4.65;76.23
84122;BME280;74217;51.106;17.084;2024-03-06T01:40:10;100678.84;;;4.65;75.49
84122;BME280;74217;51.106;17.084;2024-03-06T01:42:55;100673.53;;;4.74;75.76
84122;BME280;74217;51.106;17.084;2024-03-06T01:45:40;100686.50;;;4.77;75.12
84122;BME280;74217;51.106;17.084;2024-03-06T01:48:28;100667.44;;;4.72;75.91
84122;BME280;74217;51.106;17.084;2024-03-06T01:51:12;100682.19;;;4.73;75.99
84122;BME280;74217;51.106;17.084;2024-03-06T01:54:01;100684.78;;;4.78;74.69
84122;BME280;74217;51.106;17.084;2024-03-06T01:56:49;100681.50;;;4.62;75.53
84122;BME280;74217;51.106;17.084;2024-03-06T01:59:34;100687.75;;;4.49;76.31
84122;BME280;74217;51.106;17.084;2024-03-06T02:02:20;100692.00;;;4.56;76.65
84122;BME280;74217;51.106;17.084;2024-03-06T02:05:06;100689.31;;;4.62;74.92
84122;BME280;74217;51.106;17.084;2024-03-06T02:07:53;100685.78;;;4.66;74.61
84122;BME280;74217;51.106;17.084;2024-03-06T02:10:39;100685.75;;;4.69;75.01
84122;BME280;74217;51.106;17.084;2024-03-06T02:13:23;100681.44;;;4.67;74.80
84122;BME280;74217;51.106;17.084;2024-03-06T02:16:10;100680.63;;;4.60;74.35
84122;BME280;74217;51.106;17.084;2024-03-06T02:18:55;100680.72;;;4.54;74.92
84122;BME280;74217;51.106;17.084;2024-03-06T02:21:43;100678.19;;;4.48;75.58
84122;BME280;74217;51.106;17.084;2024-03-06T02:24:28;100677.47;;;4.37;75.45
84122;BME280;74217;51.106;17.084;2024-03-06T02:27:13;100679.28;;;4.29;75.71
84122;BME280;74217;51.106;17.084;2024-03-06T02:29:58;100687.22;;;4.20;75.15
84122;BME280;74217;51.106;17.084;2024-03-06T02:32:44;100683.00;;;4.10;75.85
84122;BME280;74217;51.106;17.084;2024-03-06T02:35:28;100690.00;;;4.05;75.81
84122;BME280;74217;51.106;17.084;2024-03-06T02:38:13;100690.91;;;4.00;74.95
84122;BME280;74217;51.106;17.084;2024-03-06T02:40:58;100691.88;;;3.93;75.85
84122;BME280;74217;51.106;17.084;2024-03-06T02:43:44;100685.06;;;3.81;75.13
84122;BME280;74217;51.106;17.084;2024-03-06T02:46:29;100683.34;;;3.77;76.28
84122;BME280;74217;51.106;17.084;2024-03-06T02:49:15;100690.31;;;3.72;76.00
84122;BME280;74217;51.106;17.084;2024-03-06T02:52:00;100697.28;;;3.70;75.37
84122;BME280;74217;51.106;17.084;2024-03-06T02:54:46;100702.59;;;3.62;76.37
84122;BME280;74217;51.106;17.084;2024-03-06T02:57:31;100702.59;;;3.58;76.31
84122;BME280;74217;51.106;17.084;2024-03-06T03:00:16;100697.44;;;3.53;75.63
84122;BME280;74217;51.106;17.084;2024-03-06T03:03:01;100704.41;;;3.51;76.02
84122;BME280;74217;51.106;17.084;2024-03-06T03:05:46;100703.63;;;3.38;75.54
84122;BME280;74217;51.106;17.084;2024-03-06T03:08:31;100707.16;;;3.30;76.06
84122;BME280;74217;51.106;17.084;2024-03-06T03:11:17;100702.91;;;3.20;76.39
84122;BME280;74217;51.106;17.084;2024-03-06T03:14:01;100711.69;;;3.07;76.39
84122;BME280;74217;51.106;17.084;2024-03-06T03:16:47;100709.97;;;3.01;76.50
84122;BME280;74217;51.106;17.084;2024-03-06T03:19:31;100711.75;;;2.96;77.01
84122;BME280;74217;51.106;17.084;2024-03-06T03:22:17;100713.47;;;2.93;76.29
84122;BME280;74217;51.106;17.084;2024-03-06T03:25:02;100717.81;;;2.89;76.41
84122;BME280;74217;51.106;17.084;2024-03-06T03:27:48;100723.09;;;2.80;76.79
84122;BME280;74217;51.106;17.084;2024-03-06T03:30:33;100726.53;;;2.76;76.53
84122;BME280;74217;51.106;17.084;2024-03-06T03:33:19;100724.00;;;2.67;76.88
84122;BME280;74217;51.106;17.084;2024-03-06T03:36:05;100728.34;;;2.64;76.51
84122;BME280;74217;51.106;17.084;2024-03-06T03:38:52;100728.34;;;2.62;76.44
84122;BME280;74217;51.106;17.084;2024-03-06T03:41:36;100732.69;;;2.60;76.96
84122;BME280;74217;51.106;17.084;2024-03-06T03:44:21;100743.09;;;2.56;77.23
84122;BME280;74217;51.106;17.084;2024-03-06T03:47:06;100738.78;;;2.53;76.84
84122;BME280;74217;51.106;17.084;2024-03-06T03:49:51;100742.22;;;2.52;77.05
84122;BME280;74217;51.106;17.084;2024-03-06T03:52:36;100749.19;;;2.47;77.04
84122;BME280;74217;51.106;17.084;2024-03-06T03:55:26;100745.72;;;2.42;77.49
84122;BME280;74217;51.106;17.084;2024-03-06T03:58:11;100751.78;;;2.40;77.01
84122;BME280;74217;51.106;17.084;2024-03-06T04:00:56;100752.69;;;2.34;76.84
84122;BME280;74217;51.106;17.084;2024-03-06T04:03:41;100747.50;;;2.31;77.01
84122;BME280;74217;51.106;17.084;2024-03-06T04:06:27;100745.78;;;2.17;77.58
84122;BME280;74217;51.106;17.084;2024-03-06T04:09:12;100751.00;;;2.15;77.17
84122;BME280;74217;51.106;17.084;2024-03-06T04:12:00;100748.41;;;2.14;76.99
84122;BME280;74217;51.106;17.084;2024-03-06T04:14:44;100758.78;;;2.14;77.28
84122;BME280;74217;51.106;17.084;2024-03-06T04:17:30;100769.19;;;2.08;77.01
84122;BME280;74217;51.106;17.084;2024-03-06T04:20:15;100758.81;;;2.00;77.11
84122;BME280;74217;51.106;17.084;2024-03-06T04:23:01;100769.19;;;1.96;76.97
84122;BME280;74217;51.106;17.084;2024-03-06T04:25:46;100762.25;;;1.92;77.06
84122;BME280;74217;51.106;17.084;2024-03-06T04:28:31;100761.41;;;1.88;76.65
84122;BME280;74217;51.106;17.084;2024-03-06T04:31:16;100764.03;;;1.81;76.77
84122;BME280;74217;51.106;17.084;2024-03-06T04:34:01;100769.22;;;1.79;77.21
84122;BME280;74217;51.106;17.084;2024-03-06T04:36:46;100770.91;;;1.77;77.23
84122;BME280;74217;51.106;17.084;2024-03-06T04:39:32;100779.56;;;1.78;76.69
84122;BME280;74217;51.106;17.084;2024-03-06T04:42:16;100765.75;;;1.67;77.09
84122;BME280;74217;51.106;17.084;2024-03-06T04:45:15;100777.84;;;1.68;76.83
84122;BME280;74217;51.106;17.084;2024-03-06T04:48:00;100782.19;;;1.63;76.91
84122;BME280;74217;51.106;17.084;2024-03-06T04:50:45;100783.91;;;1.65;76.73
84122;BME280;74217;51.106;17.084;2024-03-06T04:53:30;100794.28;;;1.58;76.84
84122;BME280;74217;51.106;17.084;2024-03-06T04:56:16;100791.66;;;1.55;76.51
84122;BME280;74217;51.106;17.084;2024-03-06T04:59:03;100798.59;;;1.56;76.55
84122;BME280;74217;51.106;17.084;2024-03-06T05:01:49;100801.19;;;1.54;76.95
84122;BME280;74217;51.106;17.084;2024-03-06T05:04:33;100798.59;;;1.56;77.03
84122;BME280;74217;51.106;17.084;2024-03-06T05:07:18;100795.97;;;1.51;76.71
84122;BME280;74217;51.106;17.084;2024-03-06T05:10:04;100798.56;;;1.47;76.85
84122;BME280;74217;51.106;17.084;2024-03-06T05:12:49;100800.28;;;1.36;76.56
84122;BME280;74217;51.106;17.084;2024-03-06T05:15:34;100791.63;;;1.25;76.94
84122;BME280;74217;51.106;17.084;2024-03-06T05:18:20;100805.47;;;1.27;77.07
84122;BME280;74217;51.106;17.084;2024-03-06T05:21:04;100808.84;;;1.11;77.88
84122;BME280;74217;51.106;17.084;2024-03-06T05:23:50;100811.47;;;1.15;77.79
84122;BME280;74217;51.106;17.084;2024-03-06T05:26:35;100819.22;;;1.12;77.26
84122;BME280;74217;51.106;17.084;2024-03-06T05:29:20;100817.50;;;1.10;77.34
84122;BME280;74217;51.106;17.084;2024-03-06T05:32:05;100809.69;;;1.02;77.27
84122;BME280;74217;51.106;17.084;2024-03-06T05:34:52;100822.69;;;1.13;76.99
84122;BME280;74217;51.106;17.084;2024-03-06T05:37:37;100814.94;;;1.13;77.13
84122;BME280;74217;51.106;17.084;2024-03-06T05:40:22;100827.03;;;1.14;76.93
84122;BME280;74217;51.106;17.084;2024-03-06T05:43:07;100821.84;;;1.14;76.84
84122;BME280;74217;51.106;17.084;2024-03-06T05:45:52;100816.63;;;1.06;76.75
84122;BME280;74217;51.106;17.084;2024-03-06T05:48:37;100835.66;;;1.11;77.12
84122;BME280;74217;51.106;17.084;2024-03-06T05:51:23;100822.69;;;1.13;77.32
84122;BME280;74217;51.106;17.084;2024-03-06T05:54:08;100830.47;;;1.07;77.67
84122;BME280;74217;51.106;17.084;2024-03-06T05:56:54;100817.50;;;1.07;77.73
84122;BME280;74217;51.106;17.084;2024-03-06T05:59:39;100831.31;;;1.09;78.23
84122;BME280;74217;51.106;17.084;2024-03-06T06:02:24;100838.22;;;1.08;77.78
84122;BME280;74217;51.106;17.084;2024-03-06T06:05:10;100829.59;;;1.14;77.66
84122;BME280;74217;51.106;17.084;2024-03-06T06:07:55;100840.00;;;1.21;77.87
84122;BME280;74217;51.106;17.084;2024-03-06T06:10:40;100824.44;;;1.23;77.97
84122;BME280;74217;51.106;17.084;2024-03-06T06:13:25;100841.72;;;1.21;78.13
84122;BME280;74217;51.106;17.084;2024-03-06T06:16:10;100843.44;;;1.19;78.39
84122;BME280;74217;51.106;17.084;2024-03-06T06:18:55;100852.94;;;1.20;78.78
84122;BME280;74217;51.106;17.084;2024-03-06T06:21:40;100846.91;;;1.30;78.55
84122;BME280;74217;51.106;17.084;2024-03-06T06:24:26;100856.44;;;1.29;78.83
84122;BME280;74217;51.106;17.084;2024-03-06T06:27:11;100848.69;;;1.31;78.65
84122;BME280;74217;51.106;17.084;2024-03-06T06:29:56;100852.97;;;1.35;78.78
84122;BME280;74217;51.106;17.084;2024-03-06T06:32:42;100865.94;;;1.32;79.08
84122;BME280;74217;51.106;17.084;2024-03-06T06:35:27;100858.22;;;1.44;79.14
84122;BME280;74217;51.106;17.084;2024-03-06T06:38:12;100862.53;;;1.45;80.25
84122;BME280;74217;51.106;17.084;2024-03-06T06:40:57;100852.19;;;1.57;79.77
84122;BME280;74217;51.106;17.084;2024-03-06T06:43:42;100860.81;;;1.62;80.04
84122;BME280;74217;51.106;17.084;2024-03-06T06:46:27;100866.88;;;1.64;80.85
84122;BME280;74217;51.106;17.084;2024-03-06T06:49:11;100871.19;;;1.62;81.25
84122;BME280;74217;51.106;17.084;2024-03-06T06:51:55;100870.38;;;1.81;81.30
84122;BME280;74217;51.106;17.084;2024-03-06T06:54:40;100869.50;;;1.85;81.26
84122;BME280;74217;51.106;17.084;2024-03-06T06:57:25;100863.44;;;1.98;80.75
84122;BME280;74217;51.106;17.084;2024-03-06T07:00:09;100860.84;;;1.86;81.27
84122;BME280;74217;51.106;17.084;2024-03-06T07:02:57;100870.41;;;2.15;80.29
84122;BME280;74217;51.106;17.084;2024-03-06T07:05:42;100867.78;;;2.23;79.87
84122;BME280;74217;51.106;17.084;2024-03-06T07:08:27;100879.03;;;2.29;79.53
84122;BME280;74217;51.106;17.084;2024-03-06T07:11:12;100882.47;;;2.30;79.48
84122;BME280;74217;51.106;17.084;2024-03-06T07:13:57;100877.28;;;2.46;79.31
84122;BME280;74217;51.106;17.084;2024-03-06T07:16:44;100885.06;;;2.55;79.82
84122;BME280;74217;51.106;17.084;2024-03-06T07:19:29;100872.03;;;2.73;78.94
84122;BME280;74217;51.106;17.084;2024-03-06T07:22:14;100882.41;;;2.76;78.80
84122;BME280;74217;51.106;17.084;2024-03-06T07:25:00;100887.63;;;2.90;77.69
84122;BME280;74217;51.106;17.084;2024-03-06T07:27:46;100881.53;;;2.79;79.25
84122;BME280;74217;51.106;17.084;2024-03-06T07:30:32;100880.69;;;2.90;78.70
84122;BME280;74217;51.106;17.084;2024-03-06T07:33:17;100885.88;;;2.96;78.47
84122;BME280;74217;51.106;17.084;2024-03-06T07:36:01;100890.22;;;2.90;77.65
84122;BME280;74217;51.106;17.084;2024-03-06T07:38:46;100895.34;;;3.05;77.87
84122;BME280;74217;51.106;17.084;2024-03-06T07:41:32;100894.41;;;3.28;77.45
84122;BME280;74217;51.106;17.084;2024-03-06T07:44:17;100896.97;;;3.39;76.19
84122;BME280;74217;51.106;17.084;2024-03-06T07:47:02;100889.88;;;3.64;76.76
84122;BME280;74217;51.106;17.084;2024-03-06T07:49:47;100891.56;;;3.70;76.42
84122;BME280;74217;51.106;17.084;2024-03-06T07:52:32;100886.41;;;3.64;75.84
84122;BME280;74217;51.106;17.084;2024-03-06T07:55:17;100891.66;;;3.57;76.02
84122;BME280;74217;51.106;17.084;2024-03-06T07:58:03;100889.88;;;3.64;74.98
84122;BME280;74217;51.106;17.084;2024-03-06T08:00:48;100880.06;;;4.05;73.06
84122;BME280;74217;51.106;17.084;2024-03-06T08:03:33;100890.34;;;4.17;74.36
84122;BME280;74217;51.106;17.084;2024-03-06T08:06:18;100886.03;;;4.19;72.79
84122;BME280;74217;51.106;17.084;2024-03-06T08:09:03;100894.63;;;4.30;73.08
84122;BME280;74217;51.106;17.084;2024-03-06T08:11:48;100897.28;;;4.20;73.57
84122;BME280;74217;51.106;17.084;2024-03-06T08:14:33;100895.31;;;4.49;72.38
84122;BME280;74217;51.106;17.084;2024-03-06T08:17:18;100903.97;;;4.54;73.46
84122;BME280;74217;51.106;17.084;2024-03-06T08:20:03;100887.44;;;4.53;72.58
84122;BME280;74217;51.106;17.084;2024-03-06T08:22:52;100894.19;;;4.75;71.52
84122;BME280;74217;51.106;17.084;2024-03-06T08:25:36;100899.41;;;4.74;72.31
84122;BME280;74217;51.106;17.084;2024-03-06T08:28:22;100902.78;;;4.86;71.70
84122;BME280;74217;51.106;17.084;2024-03-06T08:31:06;100892.47;;;4.71;71.47
84122;BME280;74217;51.106;17.084;2024-03-06T08:33:52;100898.50;;;4.78;70.76
84122;BME280;74217;51.106;17.084;2024-03-06T08:36:36;100897.31;;;5.04;68.77
84122;BME280;74217;51.106;17.084;2024-03-06T08:39:21;100894.75;;;5.03;69.33
84122;BME280;74217;51.106;17.084;2024-03-06T08:42:05;100897.13;;;5.25;67.75
84122;BME280;74217;51.106;17.084;2024-03-06T08:44:50;100900.69;;;5.15;69.55
84122;BME280;74217;51.106;17.084;2024-03-06T08:47:35;100894.44;;;5.31;68.38
84122;BME280;74217;51.106;17.084;2024-03-06T08:50:20;100890.13;;;5.30;68.94
84122;BME280;74217;51.106;17.084;2024-03-06T08:53:04;100894.38;;;5.36;65.96
84122;BME280;74217;51.106;17.084;2024-03-06T08:55:49;100900.41;;;5.42;67.53
84122;BME280;74217;51.106;17.084;2024-03-06T08:58:33;100894.09;;;5.57;67.81
84122;BME280;74217;51.106;17.084;2024-03-06T09:01:18;100897.50;;;5.63;65.13
84122;BME280;74217;51.106;17.084;2024-03-06T09:04:02;100894.81;;;5.66;63.75
84122;BME280;74217;51.106;17.084;2024-03-06T09:06:47;100898.16;;;5.77;61.15
84122;BME280;74217;51.106;17.084;2024-03-06T09:09:33;100913.75;;;5.83;60.71
84122;BME280;74217;51.106;17.084;2024-03-06T09:12:18;100899.91;;;5.77;62.90
84122;BME280;74217;51.106;17.084;2024-03-06T09:15:04;100899.16;;;5.69;62.53
84122;BME280;74217;51.106;17.084;2024-03-06T09:17:49;100900.13;;;5.60;63.78
84122;BME280;74217;51.106;17.084;2024-03-06T09:20:34;100900.78;;;5.77;63.45
84122;BME280;74217;51.106;17.084;2024-03-06T09:23:20;100902.97;;;6.04;62.31
84122;BME280;74217;51.106;17.084;2024-03-06T09:26:05;100891.47;;;6.16;62.02
84122;BME280;74217;51.106;17.084;2024-03-06T09:28:50;100900.72;;;6.36;59.42
84122;BME280;74217;51.106;17.084;2024-03-06T09:31:35;100897.88;;;6.48;59.59
84122;BME280;74217;51.106;17.084;2024-03-06T09:34:20;100900.50;;;6.48;55.52
84122;BME280;74217;51.106;17.084;2024-03-06T09:37:06;100893.44;;;6.55;55.64
84122;BME280;74217;51.106;17.084;2024-03-06T09:39:51;100906.31;;;6.65;56.51
84122;BME280;74217;51.106;17.084;2024-03-06T09:42:36;100904.75;;;6.55;56.13
84122;BME280;74217;51.106;17.084;2024-03-06T09:45:21;100900.56;;;6.45;55.38
84122;BME280;74217;51.106;17.084;2024-03-06T09:48:08;100904.00;;;6.47;56.71
84122;BME280;74217;51.106;17.084;2024-03-06T09:50:54;100899.75;;;6.43;56.81
84122;BME280;74217;51.106;17.084;2024-03-06T09:53:42;100904.78;;;6.54;57.85
84122;BME280;74217;51.106;17.084;2024-03-06T09:56:30;100909.13;;;6.53;57.51
84122;BME280;74217;51.106;17.084;2024-03-06T09:59:15;100898.75;;;6.50;57.25
84122;BME280;74217;51.106;17.084;2024-03-06T10:02:00;100907.31;;;6.58;58.66
84122;BME280;74217;51.106;17.084;2024-03-06T10:04:50;100898.22;;;6.80;53.92
84122;BME280;74217;51.106;17.084;2024-03-06T10:07:35;100906.16;;;6.74;54.21
84122;BME280;74217;51.106;17.084;2024-03-06T10:10:20;100903.66;;;6.68;52.88
84122;BME280;74217;51.106;17.084;2024-03-06T10:13:07;100904.25;;;6.84;53.16
84122;BME280;74217;51.106;17.084;2024-03-06T10:16:03;100898.44;;;6.68;53.73
84122;BME280;74217;51.106;17.084;2024-03-06T10:18:48;100909.78;;;6.66;54.30
84122;BME280;74217;51.106;17.084;2024-03-06T10:21:34;100909.59;;;6.78;55.23
84122;BME280;74217;51.106;17.084;2024-03-06T10:24:27;100907.78;;;6.80;53.75
84122;BME280;74217;51.106;17.084;2024-03-06T10:27:16;100901.75;;;6.76;54.87
84122;BME280;74217;51.106;17.084;2024-03-06T10:30:03;100915.03;;;6.66;54.74
84122;BME280;74217;51.106;17.084;2024-03-06T10:32:48;100919.34;;;6.68;56.07
84122;BME280;74217;51.106;17.084;2024-03-06T10:35:39;100913.34;;;6.60;56.38
84122;BME280;74217;51.106;17.084;2024-03-06T10:38:25;100912.25;;;6.73;55.76
84122;BME280;74217;51.106;17.084;2024-03-06T10:41:14;100917.47;;;6.73;58.25
84122;BME280;74217;51.106;17.084;2024-03-06T10:44:00;100921.19;;;6.60;58.20
84122;BME280;74217;51.106;17.084;2024-03-06T10:46:51;100916.19;;;6.48;58.71
84122;BME280;74217;51.106;17.084;2024-03-06T10:49:40;100925.72;;;6.51;59.55
84122;BME280;74217;51.106;17.084;2024-03-06T10:52:28;100929.63;;;6.77;58.43
84122;BME280;74217;51.106;17.084;2024-03-06T10:55:15;100923.56;;;6.77;57.07
84122;BME280;74217;51.106;17.084;2024-03-06T10:58:00;100933.75;;;6.40;58.98
84122;BME280;74217;51.106;17.084;2024-03-06T11:00:47;100929.50;;;6.33;60.35
84122;BME280;74217;51.106;17.084;2024-03-06T11:03:33;100930.31;;;6.38;59.91
84122;BME280;74217;51.106;17.084;2024-03-06T11:06:21;100931.28;;;6.33;59.12
84122;BME280;74217;51.106;17.084;2024-03-06T11:09:07;100935.47;;;6.41;59.24
84122;BME280;74217;51.106;17.084;2024-03-06T11:11:56;100932.28;;;6.24;58.33
84122;BME280;74217;51.106;17.084;2024-03-06T11:14:42;100935.72;;;6.26;59.03
84122;BME280;74217;51.106;17.084;2024-03-06T11:17:27;100936.75;;;6.16;58.68
84122;BME280;74217;51.106;17.084;2024-03-06T11:20:16;100916.50;;;5.74;60.56
84122;BME280;74217;51.106;17.084;2024-03-06T11:23:02;100922.22;;;5.99;59.97
84122;BME280;74217;51.106;17.084;2024-03-06T11:28:40;100936.91;;;6.06;57.65
84122;BME280;74217;51.106;17.084;2024-03-06T11:31:27;100933.28;;;6.16;57.91
84122;BME280;74217;51.106;17.084;2024-03-06T11:34:14;100922.19;;;6.00;58.34
84122;BME280;74217;51.106;17.084;2024-03-06T11:37:04;100925.81;;;5.90;58.21
84122;BME280;74217;51.106;17.084;2024-03-06T11:39:59;100924.94;;;5.91;58.52
84122;BME280;74217;51.106;17.084;2024-03-06T11:42:46;100924.97;;;5.90;59.59
84122;BME280;74217;51.106;17.084;2024-03-06T11:45:43;100913.56;;;5.94;59.13
84122;BME280;74217;51.106;17.084;2024-03-06T11:48:29;100914.31;;;6.03;60.41
84122;BME280;74217;51.106;17.084;2024-03-06T11:51:13;100914.22;;;6.09;59.34
84122;BME280;74217;51.106;17.084;2024-03-06T11:53:59;100908.78;;;6.23;57.02
84122;BME280;74217;51.106;17.084;2024-03-06T11:56:45;100909.50;;;6.32;56.52
84122;BME280;74217;51.106;17.084;2024-03-06T11:59:33;100913.13;;;6.22;58.26
84122;BME280;74217;51.106;17.084;2024-03-06T12:02:19;100909.44;;;6.35;58.48
84122;BME280;74217;51.106;17.084;2024-03-06T12:05:05;100914.56;;;6.41;58.91
84122;BME280;74217;51.106;17.084;2024-03-06T12:07:50;100902.25;;;6.49;57.08
84122;BME280;74217;51.106;17.084;2024-03-06T12:10:39;100899.34;;;6.66;56.48
84122;BME280;74217;51.106;17.084;2024-03-06T12:13:24;100902.19;;;6.52;56.66
84122;BME280;74217;51.106;17.084;2024-03-06T12:16:10;100898.03;;;6.41;55.78
84122;BME280;74217;51.106;17.084;2024-03-06T12:18:56;100905.59;;;6.57;55.84
84122;BME280;74217;51.106;17.084;2024-03-06T12:21:47;100896.63;;;6.70;55.58
84122;BME280;74217;51.106;17.084;2024-03-06T12:24:32;100901.69;;;6.79;56.85
84122;BME280;74217;51.106;17.084;2024-03-06T12:27:22;100878.94;;;6.84;55.57
84122;BME280;74217;51.106;17.084;2024-03-06T12:30:09;100900.03;;;6.75;55.17
84122;BME280;74217;51.106;17.084;2024-03-06T12:32:57;100898.75;;;6.50;55.35
84122;BME280;74217;51.106;17.084;2024-03-06T12:35:42;100910.00;;;6.55;54.93
84122;BME280;74217;51.106;17.084;2024-03-06T12:38:31;100898.78;;;6.47;55.34
84122;BME280;74217;51.106;17.084;2024-03-06T12:41:16;100903.34;;;6.36;55.51
84122;BME280;74217;51.106;17.084;2024-03-06T12:44:01;100900.16;;;6.18;56.35
84122;BME280;74217;51.106;17.084;2024-03-06T12:46:47;100905.38;;;6.18;57.44
84122;BME280;74217;51.106;17.084;2024-03-06T12:49:33;100908.88;;;6.18;57.64
84122;BME280;74217;51.106;17.084;2024-03-06T12:52:18;100904.84;;;5.95;57.83
84122;BME280;74217;51.106;17.084;2024-03-06T12:55:03;100909.97;;;6.02;58.73
84122;BME280;74217;51.106;17.084;2024-03-06T12:57:51;100907.25;;;6.10;59.07
84122;BME280;74217;51.106;17.084;2024-03-06T13:00:37;100913.41;;;6.04;58.19
84122;BME280;74217;51.106;17.084;2024-03-06T13:03:23;100917.72;;;6.07;59.25
84122;BME280;74217;51.106;17.084;2024-03-06T13:06:08;100900.66;;;5.85;58.81
84122;BME280;74217;51.106;17.084;2024-03-06T13:08:53;100910.28;;;5.81;59.59
84122;BME280;74217;51.106;17.084;2024-03-06T13:11:40;100908.50;;;5.86;59.91
84122;BME280;74217;51.106;17.084;2024-03-06T13:14:26;100913.84;;;5.76;61.00
84122;BME280;74217;51.106;17.084;2024-03-06T13:17:11;100913.09;;;5.66;61.66
84122;BME280;74217;51.106;17.084;2024-03-06T13:19:56;100915.69;;;5.71;61.77
84122;BME280;74217;51.106;17.084;2024-03-06T13:22:41;100914.06;;;5.59;61.99
84122;BME280;74217;51.106;17.084;2024-03-06T13:25:27;100916.72;;;5.56;62.42
84122;BME280;74217;51.106;17.084;2024-03-06T13:28:12;100906.47;;;5.41;63.28
84122;BME280;74217;51.106;17.084;2024-03-06T13:30:57;100915.94;;;5.51;62.93
84122;BME280;74217;51.106;17.084;2024-03-06T13:33:42;100909.06;;;5.46;64.00
84122;BME280;74217;51.106;17.084;2024-03-06T13:36:27;100910.72;;;5.48;63.49
84122;BME280;74217;51.106;17.084;2024-03-06T13:39:12;100907.22;;;5.52;63.71
84122;BME280;74217;51.106;17.084;2024-03-06T13:41:57;100897.66;;;5.53;63.98
84122;BME280;74217;51.106;17.084;2024-03-06T13:44:42;100911.44;;;5.61;63.30
84122;BME280;74217;51.106;17.084;2024-03-06T13:47:30;100899.44;;;5.49;63.97
84122;BME280;74217;51.106;17.084;2024-03-06T13:50:16;100906.38;;;5.52;64.44
84122;BME280;74217;51.106;17.084;2024-03-06T13:53:01;100905.41;;;5.57;64.65
84122;BME280;74217;51.106;17.084;2024-03-06T13:55:46;100913.34;;;5.48;65.07
84122;BME280;74217;51.106;17.084;2024-03-06T13:58:31;100918.69;;;5.39;65.69
84122;BME280;74217;51.106;17.084;2024-03-06T14:01:16;100908.34;;;5.32;66.23
84122;BME280;74217;51.106;17.084;2024-03-06T14:04:01;100915.25;;;5.36;67.60
84122;BME280;74217;51.106;17.084;2024-03-06T14:06:46;100909.88;;;5.48;67.77
84122;BME280;74217;51.106;17.084;2024-03-06T14:09:31;100912.56;;;5.43;67.32
84122;BME280;74217;51.106;17.084;2024-03-06T14:12:17;100913.41;;;5.44;67.77
84122;BME280;74217;51.106;17.084;2024-03-06T14:15:05;100903.84;;;5.46;67.27
84122;BME280;74217;51.106;17.084;2024-03-06T14:17:54;100911.72;;;5.40;68.56
84122;BME280;74217;51.106;17.084;2024-03-06T14:20:38;100928.06;;;5.55;67.94
84122;BME280;74217;51.106;17.084;2024-03-06T14:23:24;100922.03;;;5.50;68.29
84122;BME280;74217;51.106;17.084;2024-03-06T14:26:08;100916.06;;;5.42;68.85
84122;BME280;74217;51.106;17.084;2024-03-06T14:28:53;100924.81;;;5.35;69.43